Strona główna
METAR-TAF:

METAR-TAF

Lotnisko :

Port lotniczy Savannakhet

Savannakhét, Laos

Szerokość geograficzna: 16-33-24N, Długość geograficzna: 104-45-34E, wysokość: 155 m

Aktualna obserwacja pogody

Raport powstał 1 godzina i 41 minut temu, godzina 04:00 UTC
Wiatr 4 kt od północny wschód
Temperatura 30°C
Wilgotność 49%
Ciśnienie 1014 hPa
Widzialność: 8000 m
Rozproszone chmury na wysokości 2000 ft
Rozproszone chmury na wysokości 10000 ft

METAR: VLSK 280400Z 04004KT 8000 SCT020 SCT100 30/18 Q1014 NOSIG

czas: 12:41 (05:41 UTC)

Prognoza

Raport powstał 6 godziny i 41 minut temu, godzina 23:00 UTC
Prognoza ważna od 28 godzina 00 UTC do 28 godzina 24 UTC
Wiatr 4 kt od zachód
Widzialność: 8000 m
Mało chmury na wysokości 2000 ft
Mało chmury na wysokości 10000 ft

TAF: VLSK 272300Z 2800/2824 27004KT 8000 FEW020 FEW100

Obserwacja i prognoza pogody dla ponad 4000 lotnisk (raport METAR i TAF).

Dostępne stacje oznaczono żółtymi i czerwonymi punktami na mapie.

Najedź kursorem aby zobaczyć nazwę stacji.

Kliknij aby zobaczyć obserwacje i prognozy pogody.

Aby zmienić mapę: kliknij na zielony przycisk z czarnym krzyżykiem, aby powiększyć; na zielony przycisk z myślnikiem, aby pomniejszyć; na zielone strzałki, aby przejść do map sąsiednich.


METAR-TAF: